sensor_id;sensor_type;location;lat;lon;timestamp;pressure;altitude;pressure_sealevel;temperature;humidity
18985;BME280;9626;52.552;13.436;2023-02-22T00:00:52;101107.16;;;7.64;100.00
18985;BME280;9626;52.552;13.436;2023-02-22T00:03:36;101108.88;;;7.65;100.00
18985;BME280;9626;52.552;13.436;2023-02-22T00:06:22;101098.34;;;7.63;100.00
18985;BME280;9626;52.552;13.436;2023-02-22T00:09:08;101108.88;;;7.66;100.00
18985;BME280;9626;52.552;13.436;2023-02-22T00:11:53;101103.59;;;7.63;100.00
18985;BME280;9626;52.552;13.436;2023-02-22T00:14:19;101103.63;;;7.60;100.00
18985;BME280;9626;52.552;13.436;2023-02-22T00:17:04;101108.88;;;7.51;100.00
18985;BME280;9626;52.552;13.436;2023-02-22T00:19:48;101104.50;;;7.37;100.00
18985;BME280;9626;52.552;13.436;2023-02-22T00:22:14;101102.75;;;7.39;100.00
18985;BME280;9626;52.552;13.436;2023-02-22T00:25:02;101098.38;;;7.46;100.00
18985;BME280;9626;52.552;13.436;2023-02-22T00:27:47;101098.38;;;7.44;100.00
18985;BME280;9626;52.552;13.436;2023-02-22T00:30:32;101102.75;;;7.41;100.00
18985;BME280;9626;52.552;13.436;2023-02-22T00:33:01;101095.72;;;7.57;100.00
18985;BME280;9626;52.552;13.436;2023-02-22T00:35:29;101099.25;;;7.54;100.00
18985;BME280;9626;52.552;13.436;2023-02-22T00:38:16;101092.22;;;7.39;100.00
18985;BME280;9626;52.552;13.436;2023-02-22T00:40:43;101089.59;;;7.39;100.00
18985;BME280;9626;52.552;13.436;2023-02-22T00:43:10;101093.06;;;7.31;100.00
18985;BME280;9626;52.552;13.436;2023-02-22T00:45:36;101090.44;;;7.27;100.00
18985;BME280;9626;52.552;13.436;2023-02-22T00:48:06;101096.59;;;7.22;100.00
18985;BME280;9626;52.552;13.436;2023-02-22T00:50:33;101093.06;;;7.17;100.00
18985;BME280;9626;52.552;13.436;2023-02-22T00:53:17;101094.84;;;7.13;100.00
18985;BME280;9626;52.552;13.436;2023-02-22T00:55:44;101092.19;;;7.11;100.00
18985;BME280;9626;52.552;13.436;2023-02-22T00:58:10;101093.97;;;7.05;100.00
18985;BME280;9626;52.552;13.436;2023-02-22T01:00:38;101093.03;;;6.92;100.00
18985;BME280;9626;52.552;13.436;2023-02-22T01:03:05;101098.31;;;6.92;100.00
18985;BME280;9626;52.552;13.436;2023-02-22T01:05:32;101100.91;;;6.83;100.00
18985;BME280;9626;52.552;13.436;2023-02-22T01:07:59;101093.00;;;6.73;100.00
18985;BME280;9626;52.552;13.436;2023-02-22T01:10:29;101096.50;;;6.60;100.00
18985;BME280;9626;52.552;13.436;2023-02-22T01:12:57;101096.44;;;6.54;100.00
18985;BME280;9626;52.552;13.436;2023-02-22T01:15:25;101096.41;;;6.41;100.00
18985;BME280;9626;52.552;13.436;2023-02-22T01:17:53;101095.50;;;6.32;100.00
18985;BME280;9626;52.552;13.436;2023-02-22T01:20:21;101093.72;;;6.31;100.00
18985;BME280;9626;52.552;13.436;2023-02-22T01:22:49;101099.91;;;6.37;100.00
18985;BME280;9626;52.552;13.436;2023-02-22T01:25:19;101097.28;;;6.42;100.00
18985;BME280;9626;52.552;13.436;2023-02-22T01:27:46;101091.16;;;6.38;100.00
18985;BME280;9626;52.552;13.436;2023-02-22T01:30:13;101088.50;;;6.40;100.00
18985;BME280;9626;52.552;13.436;2023-02-22T01:32:40;101085.88;;;6.38;100.00
18985;BME280;9626;52.552;13.436;2023-02-22T01:35:11;101091.09;;;6.35;100.00
18985;BME280;9626;52.552;13.436;2023-02-22T01:37:39;101085.03;;;6.46;100.00
18985;BME280;9626;52.552;13.436;2023-02-22T01:40:13;101076.31;;;6.62;100.00
18985;BME280;9626;52.552;13.436;2023-02-22T01:42:41;101081.59;;;6.76;100.00
18985;BME280;9626;52.552;13.436;2023-02-22T01:48:21;101070.19;;;6.72;100.00
18985;BME280;9626;52.552;13.436;2023-02-22T01:50:54;101074.56;;;6.69;100.00
18985;BME280;9626;52.552;13.436;2023-02-22T01:53:32;101078.09;;;6.79;100.00
18985;BME280;9626;52.552;13.436;2023-02-22T01:56:00;101078.13;;;6.89;100.00
18985;BME280;9626;52.552;13.436;2023-02-22T01:58:54;101074.63;;;6.90;100.00
18985;BME280;9626;52.552;13.436;2023-02-22T02:01:41;101072.00;;;6.86;100.00
18985;BME280;9626;52.552;13.436;2023-02-22T02:04:12;101068.47;;;6.82;100.00
18985;BME280;9626;52.552;13.436;2023-02-22T02:07:02;101063.19;;;6.67;100.00
18985;BME280;9626;52.552;13.436;2023-02-22T02:12:19;101064.00;;;6.56;100.00
18985;BME280;9626;52.552;13.436;2023-02-22T02:14:51;101073.69;;;6.74;100.00
18985;BME280;9626;52.552;13.436;2023-02-22T02:17:21;101073.72;;;6.84;100.00
18985;BME280;9626;52.552;13.436;2023-02-22T02:19:58;101078.09;;;6.74;100.00
18985;BME280;9626;52.552;13.436;2023-02-22T02:31:10;101060.50;;;6.64;100.00
18985;BME280;9626;52.552;13.436;2023-02-22T02:34:02;101060.56;;;6.79;100.00
18985;BME280;9626;52.552;13.436;2023-02-22T02:37:31;101057.88;;;6.65;100.00
18985;BME280;9626;52.552;13.436;2023-02-22T02:39:48;101065.78;;;6.60;100.00
18985;BME280;9626;52.552;13.436;2023-02-22T02:42:20;101058.75;;;6.56;100.00
18985;BME280;9626;52.552;13.436;2023-02-22T02:44:56;101057.88;;;6.56;100.00
18985;BME280;9626;52.552;13.436;2023-02-22T02:47:26;101061.38;;;6.61;100.00
18985;BME280;9626;52.552;13.436;2023-02-22T02:50:22;101057.88;;;6.56;100.00
18985;BME280;9626;52.552;13.436;2023-02-22T02:52:52;101058.78;;;6.64;100.00
18985;BME280;9626;52.552;13.436;2023-02-22T02:55:20;101054.41;;;6.72;100.00
18985;BME280;9626;52.552;13.436;2023-02-22T02:57:47;101057.00;;;6.62;100.00
18985;BME280;9626;52.552;13.436;2023-02-22T03:00:28;101056.13;;;6.55;100.00
18985;BME280;9626;52.552;13.436;2023-02-22T03:03:14;101056.16;;;6.67;100.00
18985;BME280;9626;52.552;13.436;2023-02-22T03:06:02;101056.16;;;6.80;100.00
18985;BME280;9626;52.552;13.436;2023-02-22T03:08:45;101062.31;;;6.79;100.00
18985;BME280;9626;52.552;13.436;2023-02-22T03:11:33;101057.06;;;6.85;100.00
18985;BME280;9626;52.552;13.436;2023-02-22T03:14:10;101058.81;;;6.80;100.00
18985;BME280;9626;52.552;13.436;2023-02-22T03:19:36;101059.66;;;6.66;100.00
18985;BME280;9626;52.552;13.436;2023-02-22T03:22:15;101047.34;;;6.56;100.00
18985;BME280;9626;52.552;13.436;2023-02-22T03:27:31;101044.72;;;6.60;100.00
18985;BME280;9626;52.552;13.436;2023-02-22T03:30:07;101041.22;;;6.69;100.00
18985;BME280;9626;52.552;13.436;2023-02-22T03:32:40;101050.88;;;6.64;100.00
18985;BME280;9626;52.552;13.436;2023-02-22T03:35:14;101053.47;;;6.50;100.00
18985;BME280;9626;52.552;13.436;2023-02-22T03:38:03;101043.78;;;6.45;100.00
18985;BME280;9626;52.552;13.436;2023-02-22T03:40:33;101047.31;;;6.47;100.00
18985;BME280;9626;52.552;13.436;2023-02-22T03:43:06;101049.06;;;6.43;100.00
18985;BME280;9626;52.552;13.436;2023-02-22T03:45:33;101049.06;;;6.46;100.00
18985;BME280;9626;52.552;13.436;2023-02-22T03:50:40;101054.34;;;6.54;100.00
18985;BME280;9626;52.552;13.436;2023-02-22T03:53:06;101053.44;;;6.44;100.00
18985;BME280;9626;52.552;13.436;2023-02-22T03:55:33;101058.72;;;6.44;100.00
18985;BME280;9626;52.552;13.436;2023-02-22T03:58:02;101060.47;;;6.45;100.00
18985;BME280;9626;52.552;13.436;2023-02-22T04:00:33;101059.56;;;6.45;100.00
18985;BME280;9626;52.552;13.436;2023-02-22T04:03:02;101060.47;;;6.47;100.00
18985;BME280;9626;52.552;13.436;2023-02-22T04:05:29;101060.44;;;6.39;100.00
18985;BME280;9626;52.552;13.436;2023-02-22T04:07:56;101061.31;;;6.38;100.00
18985;BME280;9626;52.552;13.436;2023-02-22T04:10:23;101063.06;;;6.34;100.00
18985;BME280;9626;52.552;13.436;2023-02-22T04:12:49;101064.78;;;6.29;100.00
18985;BME280;9626;52.552;13.436;2023-02-22T04:15:22;101063.03;;;6.31;100.00
18985;BME280;9626;52.552;13.436;2023-02-22T04:17:48;101063.94;;;6.32;100.00
18985;BME280;9626;52.552;13.436;2023-02-22T04:20:15;101057.81;;;6.36;100.00
18985;BME280;9626;52.552;13.436;2023-02-22T04:22:44;101058.72;;;6.41;100.00
18985;BME280;9626;52.552;13.436;2023-02-22T04:25:13;101059.56;;;6.45;100.00
18985;BME280;9626;52.552;13.436;2023-02-22T04:27:39;101056.13;;;6.52;100.00
18985;BME280;9626;52.552;13.436;2023-02-22T04:30:05;101063.13;;;6.48;100.00
18985;BME280;9626;52.552;13.436;2023-02-22T04:32:31;101059.63;;;6.48;100.00
18985;BME280;9626;52.552;13.436;2023-02-22T04:34:57;101066.59;;;6.49;100.00
18985;BME280;9626;52.552;13.436;2023-02-22T04:37:23;101056.97;;;6.48;100.00
18985;BME280;9626;52.552;13.436;2023-02-22T04:39:49;101063.97;;;6.50;100.00
18985;BME280;9626;52.552;13.436;2023-02-22T04:42:15;101059.63;;;6.54;100.00
18985;BME280;9626;52.552;13.436;2023-02-22T04:44:41;101062.25;;;6.54;100.00
18985;BME280;9626;52.552;13.436;2023-02-22T04:47:07;101051.72;;;6.58;100.00
18985;BME280;9626;52.552;13.436;2023-02-22T04:49:33;101059.63;;;6.55;100.00
18985;BME280;9626;52.552;13.436;2023-02-22T04:51:59;101057.84;;;6.50;100.00
18985;BME280;9626;52.552;13.436;2023-02-22T04:54:25;101052.56;;;6.40;100.00
18985;BME280;9626;52.552;13.436;2023-02-22T04:56:51;101057.84;;;6.43;100.00
18985;BME280;9626;52.552;13.436;2023-02-22T04:59:17;101057.84;;;6.47;100.00
18985;BME280;9626;52.552;13.436;2023-02-22T05:01:44;101049.91;;;6.34;100.00
18985;BME280;9626;52.552;13.436;2023-02-22T05:04:10;101053.38;;;6.25;100.00
18985;BME280;9626;52.552;13.436;2023-02-22T05:06:36;101054.28;;;6.28;100.00
18985;BME280;9626;52.552;13.436;2023-02-22T05:09:03;101051.66;;;6.31;100.00
18985;BME280;9626;52.552;13.436;2023-02-22T05:11:29;101050.78;;;6.30;100.00
18985;BME280;9626;52.552;13.436;2023-02-22T05:13:55;101052.56;;;6.36;100.00
18985;BME280;9626;52.552;13.436;2023-02-22T05:16:21;101042.94;;;6.39;100.00
18985;BME280;9626;52.552;13.436;2023-02-22T05:18:47;101045.53;;;6.36;100.00
18985;BME280;9626;52.552;13.436;2023-02-22T05:21:13;101056.03;;;6.33;100.00
18985;BME280;9626;52.552;13.436;2023-02-22T05:23:39;101050.81;;;6.39;100.00
18985;BME280;9626;52.552;13.436;2023-02-22T05:26:06;101043.78;;;6.38;100.00
18985;BME280;9626;52.552;13.436;2023-02-22T05:28:32;101042.94;;;6.39;100.00
18985;BME280;9626;52.552;13.436;2023-02-22T05:30:58;101043.78;;;6.38;100.00
18985;BME280;9626;52.552;13.436;2023-02-22T05:33:24;101042.03;;;6.40;100.00
18985;BME280;9626;52.552;13.436;2023-02-22T05:35:50;101048.19;;;6.49;100.00
18985;BME280;9626;52.552;13.436;2023-02-22T05:38:16;101044.69;;;6.51;100.00
18985;BME280;9626;52.552;13.436;2023-02-22T05:40:42;101048.22;;;6.55;100.00
18985;BME280;9626;52.552;13.436;2023-02-22T05:43:08;101048.22;;;6.56;100.00
18985;BME280;9626;52.552;13.436;2023-02-22T05:45:34;101050.84;;;6.58;100.00
18985;BME280;9626;52.552;13.436;2023-02-22T05:48:01;101052.63;;;6.56;100.00
18985;BME280;9626;52.552;13.436;2023-02-22T05:50:27;101054.34;;;6.52;100.00
18985;BME280;9626;52.552;13.436;2023-02-22T05:52:54;101056.97;;;6.54;100.00
18985;BME280;9626;52.552;13.436;2023-02-22T05:55:22;101056.97;;;6.51;100.00
18985;BME280;9626;52.552;13.436;2023-02-22T05:57:48;101062.25;;;6.49;100.00
18985;BME280;9626;52.552;13.436;2023-02-22T06:00:18;101059.63;;;6.51;100.00
18985;BME280;9626;52.552;13.436;2023-02-22T06:02:44;101051.72;;;6.51;100.00
18985;BME280;9626;52.552;13.436;2023-02-22T06:05:10;101060.47;;;6.50;100.00
18985;BME280;9626;52.552;13.436;2023-02-22T06:07:36;101064.00;;;6.53;100.00
18985;BME280;9626;52.552;13.436;2023-02-22T06:10:03;101062.25;;;6.54;100.00
18985;BME280;9626;52.552;13.436;2023-02-22T06:12:29;101063.13;;;6.47;100.00
18985;BME280;9626;52.552;13.436;2023-02-22T06:14:55;101060.47;;;6.45;100.00
18985;BME280;9626;52.552;13.436;2023-02-22T06:17:21;101064.84;;;6.46;100.00
18985;BME280;9626;52.552;13.436;2023-02-22T06:19:47;101071.00;;;6.50;100.00
18985;BME280;9626;52.552;13.436;2023-02-22T06:22:17;101070.13;;;6.48;100.00
18985;BME280;9626;52.552;13.436;2023-02-22T06:24:44;101071.88;;;6.46;100.00
18985;BME280;9626;52.552;13.436;2023-02-22T06:27:10;101072.72;;;6.43;100.00
18985;BME280;9626;52.552;13.436;2023-02-22T06:29:36;101075.41;;;6.51;100.00
18985;BME280;9626;52.552;13.436;2023-02-22T06:32:02;101082.44;;;6.55;100.00
18985;BME280;9626;52.552;13.436;2023-02-22T06:34:28;101081.53;;;6.48;100.00
18985;BME280;9626;52.552;13.436;2023-02-22T06:36:54;101088.56;;;6.48;100.00
18985;BME280;9626;52.552;13.436;2023-02-22T06:39:20;101085.94;;;6.51;100.00
18985;BME280;9626;52.552;13.436;2023-02-22T06:41:47;101090.31;;;6.59;100.00
18985;BME280;9626;52.552;13.436;2023-02-22T06:44:15;101088.59;;;6.62;100.00
18985;BME280;9626;52.552;13.436;2023-02-22T06:46:46;101092.97;;;6.56;100.00
18985;BME280;9626;52.552;13.436;2023-02-22T06:49:13;101094.72;;;6.56;100.00
18985;BME280;9626;52.552;13.436;2023-02-22T06:51:39;101091.16;;;6.45;100.00
18985;BME280;9626;52.552;13.436;2023-02-22T06:54:06;101092.06;;;6.50;100.00
18985;BME280;9626;52.552;13.436;2023-02-22T06:56:32;101099.94;;;6.50;100.00
18985;BME280;9626;52.552;13.436;2023-02-22T06:58:58;101092.97;;;6.56;100.00
18985;BME280;9626;52.552;13.436;2023-02-22T07:01:24;101096.50;;;6.63;100.00
18985;BME280;9626;52.552;13.436;2023-02-22T07:03:50;101097.38;;;6.70;100.00
18985;BME280;9626;52.552;13.436;2023-02-22T07:06:16;101100.88;;;6.73;100.00
18985;BME280;9626;52.552;13.436;2023-02-22T07:08:42;101100.03;;;6.74;100.00
18985;BME280;9626;52.552;13.436;2023-02-22T07:11:08;101104.41;;;6.71;100.00
18985;BME280;9626;52.552;13.436;2023-02-22T07:13:33;101101.75;;;6.69;100.00
18985;BME280;9626;52.552;13.436;2023-02-22T07:15:59;101108.78;;;6.70;100.00
18985;BME280;9626;52.552;13.436;2023-02-22T07:18:25;101103.53;;;6.73;100.00
18985;BME280;9626;52.552;13.436;2023-02-22T07:20:52;101107.94;;;6.79;100.00
18985;BME280;9626;52.552;13.436;2023-02-22T07:23:19;101110.56;;;6.81;100.00
18985;BME280;9626;52.552;13.436;2023-02-22T07:25:47;101102.66;;;6.77;100.00
18985;BME280;9626;52.552;13.436;2023-02-22T07:28:13;101108.81;;;6.76;100.00
18985;BME280;9626;52.552;13.436;2023-02-22T07:30:39;101108.81;;;6.76;100.00
18985;BME280;9626;52.552;13.436;2023-02-22T07:33:10;101106.19;;;6.81;100.00
18985;BME280;9626;52.552;13.436;2023-02-22T07:35:41;101105.31;;;6.84;100.00
18985;BME280;9626;52.552;13.436;2023-02-22T07:38:08;101100.91;;;6.84;100.00
18985;BME280;9626;52.552;13.436;2023-02-22T07:40:35;101106.22;;;6.90;100.00
18985;BME280;9626;52.552;13.436;2023-02-22T07:45:42;101104.44;;;6.91;100.00
18985;BME280;9626;52.552;13.436;2023-02-22T07:48:08;101107.97;;;6.94;100.00
18985;BME280;9626;52.552;13.436;2023-02-22T07:50:35;101103.59;;;7.01;100.00
18985;BME280;9626;52.552;13.436;2023-02-22T07:53:03;101112.41;;;7.05;100.00
18985;BME280;9626;52.552;13.436;2023-02-22T07:55:30;101115.00;;;7.13;100.00
18985;BME280;9626;52.552;13.436;2023-02-22T07:57:59;101104.47;;;7.13;100.00
18985;BME280;9626;52.552;13.436;2023-02-22T08:00:28;101103.59;;;7.07;100.00
18985;BME280;9626;52.552;13.436;2023-02-22T08:02:55;101112.41;;;7.06;100.00
18985;BME280;9626;52.552;13.436;2023-02-22T08:05:24;101105.34;;;7.08;100.00
18985;BME280;9626;52.552;13.436;2023-02-22T08:07:51;101110.63;;;7.05;100.00
18985;BME280;9626;52.552;13.436;2023-02-22T08:10:18;101107.13;;;7.06;100.00
18985;BME280;9626;52.552;13.436;2023-02-22T08:12:45;101113.25;;;7.08;100.00
18985;BME280;9626;52.552;13.436;2023-02-22T08:15:27;101116.78;;;7.12;100.00
18985;BME280;9626;52.552;13.436;2023-02-22T08:17:58;101110.63;;;7.08;100.00
18985;BME280;9626;52.552;13.436;2023-02-22T08:20:27;101109.75;;;7.11;100.00
18985;BME280;9626;52.552;13.436;2023-02-22T08:22:53;101110.66;;;7.13;100.00
18985;BME280;9626;52.552;13.436;2023-02-22T08:25:22;101108.00;;;7.19;100.00
18985;BME280;9626;52.552;13.436;2023-02-22T08:27:50;101100.97;;;7.18;100.00
18985;BME280;9626;52.552;13.436;2023-02-22T08:30:20;101104.50;;;7.25;100.00
18985;BME280;9626;52.552;13.436;2023-02-22T08:32:47;101111.53;;;7.27;100.00
18985;BME280;9626;52.552;13.436;2023-02-22T08:35:14;101109.75;;;7.22;100.00
18985;BME280;9626;52.552;13.436;2023-02-22T08:37:44;101109.75;;;7.26;100.00
18985;BME280;9626;52.552;13.436;2023-02-22T08:40:11;101112.41;;;7.22;100.00
18985;BME280;9626;52.552;13.436;2023-02-22T08:42:37;101108.88;;;7.17;100.00
18985;BME280;9626;52.552;13.436;2023-02-22T08:45:04;101107.13;;;7.20;100.00
18985;BME280;9626;52.552;13.436;2023-02-22T08:47:30;101108.91;;;7.24;100.00
18985;BME280;9626;52.552;13.436;2023-02-22T08:49:56;101108.91;;;7.35;100.00
18985;BME280;9626;52.552;13.436;2023-02-22T08:52:22;101109.78;;;7.40;100.00
18985;BME280;9626;52.552;13.436;2023-02-22T08:54:48;101106.25;;;7.38;100.00
18985;BME280;9626;52.552;13.436;2023-02-22T08:57:14;101098.38;;;7.32;100.00
18985;BME280;9626;52.552;13.436;2023-02-22T08:59:40;101099.22;;;7.37;100.00
18985;BME280;9626;52.552;13.436;2023-02-22T09:02:19;101105.38;;;7.39;100.00
18985;BME280;9626;52.552;13.436;2023-02-22T09:04:49;101105.38;;;7.45;100.00
18985;BME280;9626;52.552;13.436;2023-02-22T09:07:16;101107.16;;;7.54;100.00
18985;BME280;9626;52.552;13.436;2023-02-22T09:09:43;101105.38;;;7.55;100.00
18985;BME280;9626;52.552;13.436;2023-02-22T09:12:10;101108.88;;;7.65;100.00
18985;BME280;9626;52.552;13.436;2023-02-22T09:14:36;101114.16;;;7.72;100.00
18985;BME280;9626;52.552;13.436;2023-02-22T09:17:03;101108.88;;;7.69;100.00
18985;BME280;9626;52.552;13.436;2023-02-22T09:19:29;101107.16;;;7.53;100.00
18985;BME280;9626;52.552;13.436;2023-02-22T09:21:56;101105.38;;;7.52;100.00
18985;BME280;9626;52.552;13.436;2023-02-22T09:24:22;101107.13;;;7.56;100.00
18985;BME280;9626;52.552;13.436;2023-02-22T09:26:49;101108.00;;;7.66;100.00
18985;BME280;9626;52.552;13.436;2023-02-22T09:29:24;101103.63;;;7.69;100.00
18985;BME280;9626;52.552;13.436;2023-02-22T09:31:52;101113.28;;;7.66;100.00
18985;BME280;9626;52.552;13.436;2023-02-22T09:34:20;101100.97;;;7.66;100.00
18985;BME280;9626;52.552;13.436;2023-02-22T09:36:48;101106.25;;;7.72;100.00
18985;BME280;9626;52.552;13.436;2023-02-22T09:39:15;101109.75;;;7.79;100.00
18985;BME280;9626;52.552;13.436;2023-02-22T09:44:36;101102.72;;;7.84;100.00
18985;BME280;9626;52.552;13.436;2023-02-22T09:47:22;101100.06;;;7.86;100.00
18985;BME280;9626;52.552;13.436;2023-02-22T09:50:09;101100.06;;;7.93;100.00
18985;BME280;9626;52.552;13.436;2023-02-22T09:53:06;101100.03;;;8.01;100.00
18985;BME280;9626;52.552;13.436;2023-02-22T09:55:41;101098.25;;;8.09;100.00
18985;BME280;9626;52.552;13.436;2023-02-22T09:58:22;101093.88;;;8.11;100.00
18985;BME280;9626;52.552;13.436;2023-02-22T10:00:53;101090.34;;;8.14;100.00
18985;BME280;9626;52.552;13.436;2023-02-22T10:06:14;101090.25;;;8.34;100.00
18985;BME280;9626;52.552;13.436;2023-02-22T10:08:42;101091.13;;;8.38;100.00
18985;BME280;9626;52.552;13.436;2023-02-22T10:20:02;101088.47;;;8.41;100.00
18985;BME280;9626;52.552;13.436;2023-02-22T10:25:26;101083.22;;;8.35;100.00
18985;BME280;9626;52.552;13.436;2023-02-22T10:28:00;101084.09;;;8.35;100.00
18985;BME280;9626;52.552;13.436;2023-02-22T10:30:34;101085.88;;;8.35;100.00
18985;BME280;9626;52.552;13.436;2023-02-22T10:33:23;101076.19;;;8.40;100.00
18985;BME280;9626;52.552;13.436;2023-02-22T10:35:53;101077.94;;;8.36;100.00
18985;BME280;9626;52.552;13.436;2023-02-22T10:38:22;101085.00;;;8.31;100.00
18985;BME280;9626;52.552;13.436;2023-02-22T10:40:56;101076.19;;;8.40;100.00
18985;BME280;9626;52.552;13.436;2023-02-22T10:43:24;101073.50;;;8.54;100.00
18985;BME280;9626;52.552;13.436;2023-02-22T10:45:57;101083.16;;;8.53;100.00
18985;BME280;9626;52.552;13.436;2023-02-22T10:48:27;101076.13;;;8.54;100.00
18985;BME280;9626;52.552;13.436;2023-02-22T10:51:00;101067.28;;;8.67;100.00
18985;BME280;9626;52.552;13.436;2023-02-22T10:53:27;101073.41;;;8.69;100.00
18985;BME280;9626;52.552;13.436;2023-02-22T10:56:05;101073.38;;;8.72;100.00
18985;BME280;9626;52.552;13.436;2023-02-22T11:01:37;101067.13;;;8.92;100.00
18985;BME280;9626;52.552;13.436;2023-02-22T11:06:39;101073.31;;;8.82;100.00
18985;BME280;9626;52.552;13.436;2023-02-22T11:11:42;101069.84;;;8.79;100.00
18985;BME280;9626;52.552;13.436;2023-02-22T11:14:09;101064.47;;;8.92;100.00
18985;BME280;9626;52.552;13.436;2023-02-22T11:16:42;101060.94;;;8.90;100.00
18985;BME280;9626;52.552;13.436;2023-02-22T11:21:41;101063.69;;;8.76;100.00
18985;BME280;9626;52.552;13.436;2023-02-22T11:24:12;101061.06;;;8.68;100.00
18985;BME280;9626;52.552;13.436;2023-02-22T11:26:45;101062.88;;;8.66;100.00
18985;BME280;9626;52.552;13.436;2023-02-22T11:31:54;101061.09;;;8.65;100.00
18985;BME280;9626;52.552;13.436;2023-02-22T11:34:34;101048.78;;;8.67;100.00
18985;BME280;9626;52.552;13.436;2023-02-22T11:42:32;101048.03;;;8.39;100.00
18985;BME280;9626;52.552;13.436;2023-02-22T11:45:15;101036.59;;;8.35;100.00
18985;BME280;9626;52.552;13.436;2023-02-22T11:48:00;101037.44;;;8.43;100.00
18985;BME280;9626;52.552;13.436;2023-02-22T11:50:30;101037.44;;;8.45;100.00
18985;BME280;9626;52.552;13.436;2023-02-22T11:58:40;101019.72;;;8.66;100.00
18985;BME280;9626;52.552;13.436;2023-02-22T12:03:55;101019.72;;;8.66;100.00
18985;BME280;9626;52.552;13.436;2023-02-22T12:09:38;101011.72;;;8.81;100.00
18985;BME280;9626;52.552;13.436;2023-02-22T12:12:28;101015.31;;;8.69;100.00
18985;BME280;9626;52.552;13.436;2023-02-22T12:15:31;101016.28;;;8.56;100.00
18985;BME280;9626;52.552;13.436;2023-02-22T12:18:19;101011.03;;;8.43;100.00
18985;BME280;9626;52.552;13.436;2023-02-22T12:20:54;101017.09;;;8.64;100.00
18985;BME280;9626;52.552;13.436;2023-02-22T12:23:30;101007.44;;;8.66;100.00
18985;BME280;9626;52.552;13.436;2023-02-22T12:26:13;101009.19;;;8.64;100.00
18985;BME280;9626;52.552;13.436;2023-02-22T12:31:46;101015.28;;;8.72;100.00
18985;BME280;9626;52.552;13.436;2023-02-22T12:36:57;101007.25;;;8.91;100.00
18985;BME280;9626;52.552;13.436;2023-02-22T12:39:37;101003.75;;;8.90;100.00
18985;BME280;9626;52.552;13.436;2023-02-22T12:42:12;101004.66;;;8.82;100.00
18985;BME280;9626;52.552;13.436;2023-02-22T12:44:44;100999.38;;;8.82;100.00
18985;BME280;9626;52.552;13.436;2023-02-22T12:47:18;101006.41;;;8.86;100.00
18985;BME280;9626;52.552;13.436;2023-02-22T12:50:22;101004.56;;;8.94;100.00
18985;BME280;9626;52.552;13.436;2023-02-22T12:52:56;101009.88;;;8.91;100.00
18985;BME280;9626;52.552;13.436;2023-02-22T12:55:30;101009.91;;;8.89;100.00
18985;BME280;9626;52.552;13.436;2023-02-22T12:58:31;101009.06;;;8.83;100.00
18985;BME280;9626;52.552;13.436;2023-02-22T13:01:15;101009.00;;;8.89;100.00
18985;BME280;9626;52.552;13.436;2023-02-22T13:03:44;101000.13;;;8.99;100.00
18985;BME280;9626;52.552;13.436;2023-02-22T13:15:25;100994.72;;;9.18;100.00
18985;BME280;9626;52.552;13.436;2023-02-22T13:18:26;100989.44;;;9.13;100.00
18985;BME280;9626;52.552;13.436;2023-02-22T13:21:00;100989.38;;;9.21;100.00
18985;BME280;9626;52.552;13.436;2023-02-22T13:23:38;100991.22;;;9.12;100.00
18985;BME280;9626;52.552;13.436;2023-02-22T13:26:29;100988.59;;;9.12;100.00
18985;BME280;9626;52.552;13.436;2023-02-22T13:29:03;100977.97;;;9.17;100.00
18985;BME280;9626;52.552;13.436;2023-02-22T13:31:47;100982.38;;;9.18;100.00
18985;BME280;9626;52.552;13.436;2023-02-22T13:53:11;100976.25;;;9.11;100.00
18985;BME280;9626;52.552;13.436;2023-02-22T13:55:40;100972.78;;;9.06;100.00
18985;BME280;9626;52.552;13.436;2023-02-22T13:58:09;100973.66;;;9.07;100.00
18985;BME280;9626;52.552;13.436;2023-02-22T14:00:57;100978.97;;;9.02;100.00
18985;BME280;9626;52.552;13.436;2023-02-22T14:05:59;100967.47;;;9.11;100.00
18985;BME280;9626;52.552;13.436;2023-02-22T14:16:21;100964.00;;;9.04;100.00
18985;BME280;9626;52.552;13.436;2023-02-22T14:19:17;100960.47;;;9.04;100.00
18985;BME280;9626;52.552;13.436;2023-02-22T14:22:01;100958.63;;;9.12;100.00
18985;BME280;9626;52.552;13.436;2023-02-22T14:24:43;100959.53;;;9.11;100.00
18985;BME280;9626;52.552;13.436;2023-02-22T14:27:10;100959.53;;;9.12;100.00
18985;BME280;9626;52.552;13.436;2023-02-22T14:29:37;100960.44;;;9.10;100.00
18985;BME280;9626;52.552;13.436;2023-02-22T14:32:10;100955.13;;;9.11;100.00
18985;BME280;9626;52.552;13.436;2023-02-22T14:34:41;100955.19;;;9.05;100.00
18985;BME280;9626;52.552;13.436;2023-02-22T14:39:57;100966.75;;;8.92;100.00
18985;BME280;9626;52.552;13.436;2023-02-22T14:47:49;100945.69;;;8.83;100.00
18985;BME280;9626;52.552;13.436;2023-02-22T14:50:25;100943.94;;;8.82;100.00
18985;BME280;9626;52.552;13.436;2023-02-22T14:53:04;100949.25;;;8.78;100.00
18985;BME280;9626;52.552;13.436;2023-02-22T14:55:37;100939.53;;;8.80;100.00
18985;BME280;9626;52.552;13.436;2023-02-22T14:58:19;100934.25;;;8.84;100.00
18985;BME280;9626;52.552;13.436;2023-02-22T15:00:49;100940.38;;;8.86;100.00
18985;BME280;9626;52.552;13.436;2023-02-22T15:05:49;100938.72;;;8.75;100.00
18985;BME280;9626;52.552;13.436;2023-02-22T15:08:17;100939.63;;;8.70;100.00
18985;BME280;9626;52.552;13.436;2023-02-22T15:10:50;100937.91;;;8.67;100.00
18985;BME280;9626;52.552;13.436;2023-02-22T15:13:20;100938.75;;;8.69;100.00
18985;BME280;9626;52.552;13.436;2023-02-22T15:15:55;100936.16;;;8.65;100.00
18985;BME280;9626;52.552;13.436;2023-02-22T15:20:55;100938.81;;;8.65;100.00
18985;BME280;9626;52.552;13.436;2023-02-22T15:23:28;100934.34;;;8.68;100.00